createdAt,value
2022-11-25T00:03:42.104Z,99375.62
2022-11-25T00:08:46.176Z,99378.61
2022-11-25T00:13:48.681Z,99378.81
2022-11-25T00:18:52.479Z,99379.89
2022-11-25T00:24:04.428Z,99378.05
2022-11-25T00:29:10.511Z,99382.42
2022-11-25T00:34:14.018Z,99382.46
2022-11-25T00:39:17.929Z,99387.52
2022-11-25T00:44:39.145Z,99390.84
2022-11-25T00:49:50.251Z,99390.66
2022-11-25T00:54:52.521Z,99392.09
2022-11-25T00:59:54.166Z,99396.02
2022-11-25T01:04:55.786Z,99396.77
2022-11-25T01:09:57.400Z,99392.62
2022-11-25T01:14:59.005Z,99390.76
2022-11-25T01:20:00.614Z,99394.27
2022-11-25T01:25:02.245Z,99395.90
2022-11-25T01:30:04.337Z,99397.59
2022-11-25T01:35:07.157Z,99402.74
2022-11-25T01:40:10.081Z,99404.89
2022-11-25T01:45:26.706Z,99406.82
2022-11-25T01:50:33.414Z,99411.23
2022-11-25T01:55:38.482Z,99411.05
2022-11-25T02:00:40.186Z,99415.66
2022-11-25T02:06:02.812Z,99413.56
2022-11-25T02:11:04.798Z,99418.27
2022-11-25T02:16:06.558Z,99423.59
2022-11-25T02:21:09.096Z,99424.69
2022-11-25T02:26:11.120Z,99425.66
2022-11-25T02:31:18.218Z,99429.70
2022-11-25T02:36:22.374Z,99431.04
2022-11-25T02:41:38.661Z,99435.09
2022-11-25T02:46:40.376Z,99440.04
2022-11-25T02:51:45.071Z,99442.14
2022-11-25T02:56:46.893Z,99441.14
2022-11-25T03:01:48.515Z,99439.13
2022-11-25T03:06:50.133Z,99441.41
2022-11-25T03:12:10.204Z,99441.36
2022-11-25T03:17:11.910Z,99445.55
2022-11-25T03:22:13.614Z,99446.21
2022-11-25T03:27:15.245Z,99451.68
2022-11-25T03:32:17.007Z,99454.59
2022-11-25T03:37:19.017Z,99455.39
2022-11-25T03:42:20.645Z,99457.31
2022-11-25T03:47:22.411Z,99456.58
2022-11-25T03:52:24.469Z,99455.70
2022-11-25T03:57:26.097Z,99459.85
2022-11-25T04:02:27.784Z,99461.83
2022-11-25T04:07:29.545Z,99463.48
2022-11-25T04:12:46.346Z,99464.98
2022-11-25T04:17:48.058Z,99465.27
2022-11-25T04:22:50.071Z,99465.64
2022-11-25T04:27:51.670Z,99467.58
2022-11-25T04:32:53.411Z,99470.77
2022-11-25T04:37:55.028Z,99475.31
2022-11-25T04:43:03.417Z,99484.95
2022-11-25T04:48:06.402Z,99485.73
2022-11-25T04:53:08.004Z,99490.95
2022-11-25T04:58:12.958Z,99492.94
2022-11-25T05:03:14.558Z,99492.54
2022-11-25T05:08:16.145Z,99493.16
2022-11-25T05:13:17.726Z,99493.19
2022-11-25T05:18:19.499Z,99500.02
2022-11-25T05:23:21.097Z,99504.27
2022-11-25T05:28:22.698Z,99511.59
2022-11-25T05:33:24.577Z,99511.39
2022-11-25T05:38:27.223Z,99515.84
2022-11-25T05:43:28.858Z,99518.52
2022-11-25T05:48:30.499Z,99525.42
2022-11-25T05:53:32.610Z,99535.73
2022-11-25T05:58:34.306Z,99544.40
2022-11-25T06:03:37.011Z,99544.21
2022-11-25T06:08:39.637Z,99544.93
2022-11-25T06:13:44.079Z,99549.80
2022-11-25T06:18:46.186Z,99557.78
2022-11-25T06:23:47.795Z,99560.50
2022-11-25T06:28:53.657Z,99566.87
2022-11-25T06:33:55.444Z,99567.99
2022-11-25T06:38:57.058Z,99568.64
2022-11-25T06:43:58.654Z,99576.75
2022-11-25T06:49:00.288Z,99579.67
2022-11-25T06:54:01.890Z,99582.63
2022-11-25T06:59:03.572Z,99583.44
2022-11-25T07:04:05.436Z,99585.46
2022-11-25T07:09:07.141Z,99585.70
2022-11-25T07:14:13.929Z,99589.77
2022-11-25T07:19:17.647Z,99591.86
2022-11-25T07:24:19.258Z,99593.69
2022-11-25T07:29:51.545Z,99595.20
2022-11-25T07:34:42.577Z,99598.34
2022-11-25T07:39:44.159Z,99602.51
2022-11-25T07:44:45.769Z,99612.86
2022-11-25T07:49:47.482Z,99618.61
2022-11-25T07:54:49.057Z,99619.73
2022-11-25T07:59:50.646Z,99621.33
2022-11-25T08:04:52.231Z,99623.48
2022-11-25T08:09:53.825Z,99626.59
2022-11-25T08:14:55.845Z,99631.74
2022-11-25T08:19:57.493Z,99635.70
2022-11-25T08:24:59.126Z,99636.44
2022-11-25T08:30:00.771Z,99637.54
2022-11-25T08:35:02.429Z,99641.29
2022-11-25T08:40:04.800Z,99642.38
2022-11-25T08:45:08.932Z,99648.19
2022-11-25T08:50:13.359Z,99646.69
2022-11-25T08:55:15.604Z,99648.79
2022-11-25T09:00:17.802Z,99652.69
2022-11-25T09:05:19.489Z,99655.36
2022-11-25T09:10:21.154Z,99653.06
2022-11-25T09:15:22.963Z,99655.96
2022-11-25T09:20:24.702Z,99656.97
2022-11-25T09:25:27.012Z,99653.98
2022-11-25T09:30:28.762Z,99652.61
2022-11-25T09:35:30.372Z,99651.79
2022-11-25T09:41:05.717Z,99648.88
2022-11-25T09:46:45.289Z,99641.33
2022-11-25T09:52:11.936Z,99643.34
2022-11-25T09:57:29.209Z,99656.95
2022-11-25T10:02:42.626Z,99662.65
2022-11-25T10:07:52.144Z,99672.20
2022-11-25T10:12:57.285Z,99669.52
2022-11-25T10:18:27.030Z,99670.87
2022-11-25T10:23:34.530Z,99673.59
2022-11-25T10:28:37.727Z,99674.92
2022-11-25T10:33:53.647Z,99676.30
2022-11-25T10:39:04.073Z,99679.80
2022-11-25T10:44:20.524Z,99683.14
2022-11-25T10:49:41.026Z,99685.04
2022-11-25T10:54:55.879Z,99685.71
2022-11-25T10:59:59.827Z,99687.12
2022-11-25T11:05:07.934Z,99690.44
2022-11-25T11:10:25.987Z,99688.19
2022-11-25T11:15:46.422Z,99691.19
2022-11-25T11:20:52.426Z,99695.33
2022-11-25T11:26:09.052Z,99696.11
2022-11-25T11:31:23.799Z,99699.26
2022-11-25T11:37:21.371Z,99698.64
2022-11-25T11:43:26.437Z,99699.55
2022-11-25T11:49:20.140Z,99695.21
2022-11-25T11:54:36.429Z,99696.48
2022-11-25T11:59:54.807Z,99697.70
2022-11-25T12:05:02.404Z,99698.66
2022-11-25T12:10:40.056Z,99698.55
2022-11-25T12:16:13.068Z,99696.88
2022-11-25T12:21:50.573Z,99697.49
2022-11-25T12:27:18.363Z,99703.57
2022-11-25T12:32:44.572Z,99705.58
2022-11-25T12:38:01.578Z,99707.77
2022-11-25T12:43:29.412Z,99710.62
2022-11-25T12:48:31.763Z,99709.21
2022-11-25T12:53:49.966Z,99711.96
2022-11-25T12:59:18.004Z,99713.55
2022-11-25T13:04:50.123Z,99723.14
2022-11-25T13:10:36.215Z,99721.58
2022-11-25T13:15:45.399Z,99725.54
2022-11-25T13:20:54.983Z,99727.77
2022-11-25T13:26:33.411Z,99724.79
2022-11-25T13:31:59.482Z,99722.66
2022-11-25T13:37:36.533Z,99725.77
2022-11-25T13:42:44.031Z,99728.95
2022-11-25T13:47:48.613Z,99732.27
2022-11-25T13:53:18.406Z,99735.32
2022-11-25T13:58:30.859Z,99741.67
2022-11-25T14:03:32.449Z,99746.79
2022-11-25T14:09:14.419Z,99750.59
2022-11-25T14:15:08.273Z,99754.73
2022-11-25T14:21:04.051Z,99756.14
2022-11-25T14:26:49.616Z,99757.85
2022-11-25T14:31:58.990Z,99760.49
2022-11-25T14:37:17.026Z,99765.40
2022-11-25T14:42:22.627Z,99763.32
2022-11-25T14:47:33.298Z,99767.17
2022-11-25T14:52:37.617Z,99772.08
2022-11-25T14:57:44.292Z,99772.25
2022-11-25T15:02:56.465Z,99776.38
2022-11-25T15:08:00.582Z,99772.98
2022-11-25T15:13:13.457Z,99779.47
2022-11-25T15:18:21.265Z,99778.71
2022-11-25T15:23:34.085Z,99778.73
2022-11-25T15:28:37.971Z,99781.25
2022-11-25T15:33:39.997Z,99782.05
2022-11-25T15:38:44.819Z,99778.75
2022-11-25T15:43:54.689Z,99777.44
2022-11-25T15:49:05.291Z,99779.67
2022-11-25T15:54:12.938Z,99777.77
2022-11-25T15:59:59.812Z,99777.71
2022-11-25T16:05:16.121Z,99777.66
2022-11-25T16:10:27.891Z,99774.80
2022-11-25T16:16:00.331Z,99778.46
2022-11-25T16:21:09.655Z,99778.77
2022-11-25T16:26:11.199Z,99781.67
2022-11-25T16:31:16.782Z,99780.38
2022-11-25T16:36:18.764Z,99784.45
2022-11-25T16:41:24.494Z,99786.37
2022-11-25T16:46:26.873Z,99790.17
2022-11-25T16:51:28.700Z,99794.73
2022-11-25T16:56:30.326Z,99795.52
2022-11-25T17:01:33.782Z,99794.96
2022-11-25T17:06:36.725Z,99796.48
2022-11-25T17:11:53.885Z,99797.30
2022-11-25T17:16:55.683Z,99801.29
2022-11-25T17:21:57.609Z,99805.23
2022-11-25T17:27:05.078Z,99806.91
2022-11-25T17:32:06.936Z,99812.31
2022-11-25T17:37:22.182Z,99815.79
2022-11-25T17:42:31.357Z,99819.20
2022-11-25T17:47:33.004Z,99823.01
2022-11-25T17:52:34.617Z,99829.67
2022-11-25T17:57:36.711Z,99841.70
2022-11-25T18:02:39.155Z,99844.65
2022-11-25T18:07:43.675Z,99847.78
2022-11-25T18:12:48.161Z,99853.97
2022-11-25T18:17:51.075Z,99852.98
2022-11-25T18:22:53.216Z,99847.91
2022-11-25T18:27:56.309Z,99846.86
2022-11-25T18:32:57.931Z,99844.30
2022-11-25T18:37:59.741Z,99845.79
2022-11-25T18:43:03.977Z,99852.95
2022-11-25T18:48:14.291Z,99846.85
2022-11-25T18:53:16.303Z,99853.05
2022-11-25T18:58:21.285Z,99851.73
2022-11-25T19:03:25.346Z,99856.02
2022-11-25T19:08:27.000Z,99854.51
2022-11-25T19:13:35.041Z,99860.00
2022-11-25T19:18:36.814Z,99858.39
2022-11-25T19:23:38.418Z,99859.33
2022-11-25T19:28:41.295Z,99860.64
2022-11-25T19:33:46.548Z,99861.63
2022-11-25T19:38:48.140Z,99868.58
2022-11-25T19:43:49.911Z,99872.20
2022-11-25T19:48:53.728Z,99875.92
2022-11-25T19:53:55.233Z,99881.70
2022-11-25T19:58:56.915Z,99885.80
2022-11-25T20:03:58.929Z,99895.94
2022-11-25T20:09:06.460Z,99891.42
2022-11-25T20:14:09.336Z,99898.61
2022-11-25T20:19:17.389Z,99898.17
2022-11-25T20:24:20.128Z,99899.75
2022-11-25T20:29:26.074Z,99903.29
2022-11-25T20:34:36.145Z,99912.20
2022-11-25T20:39:41.747Z,99911.50
2022-11-25T20:44:43.538Z,99911.91
2022-11-25T20:49:46.745Z,99919.27
2022-11-25T20:54:48.413Z,99920.02
2022-11-25T20:59:50.122Z,99920.99
2022-11-25T21:04:51.695Z,99923.16
2022-11-25T21:09:53.351Z,99921.54
2022-11-25T21:14:54.935Z,99922.02
2022-11-25T21:19:56.526Z,99922.66
2022-11-25T21:24:58.357Z,99930.52
2022-11-25T21:29:59.989Z,99935.54
2022-11-25T21:35:03.383Z,99936.73
2022-11-25T21:40:06.396Z,99946.95
2022-11-25T21:45:16.172Z,99948.08
2022-11-25T21:50:19.605Z,99941.30
2022-11-25T21:55:21.286Z,99945.73
2022-11-25T22:00:25.296Z,99945.85
2022-11-25T22:05:26.978Z,99946.09
2022-11-25T22:10:28.656Z,99949.39
2022-11-25T22:15:30.384Z,99950.27
2022-11-25T22:20:35.092Z,99958.16
2022-11-25T22:25:36.829Z,99960.85
2022-11-25T22:30:38.493Z,99963.62
2022-11-25T22:35:40.131Z,99967.79
2022-11-25T22:40:51.594Z,99970.10
2022-11-25T22:45:54.223Z,99973.11
2022-11-25T22:50:55.968Z,99974.85
2022-11-25T22:55:57.936Z,99981.13
2022-11-25T23:00:59.687Z,99980.21
2022-11-25T23:06:02.654Z,99982.79
2022-11-25T23:11:05.389Z,99990.12
2022-11-25T23:16:10.472Z,99988.76
2022-11-25T23:21:27.270Z,99988.52
2022-11-25T23:31:50.658Z,99983.80
2022-11-25T23:36:52.382Z,99986.33
2022-11-25T23:41:54.103Z,99988.73
2022-11-25T23:47:05.880Z,99988.85
2022-11-25T23:52:10.844Z,100000.23
2022-11-25T23:57:25.726Z,99996.38
